Main page
METAR-TAF:

METAR-TAF

Airports :

Marsa Alam International Airport

Marsa Alam, Egypt

latitude: 25-33-25N, longitude: 34-35-01E, elevation: 77 m

METAR: missing

Time: 18:25 (16:25 UTC)

Forecast

The report was made 5 hours and 20 minutes ago, at 11:05 UTC
Forecast valid from 28 at 12 UTC to 29 at 18 UTC
Wind 15 kt from the North/Northeast with gusts up to 25 kt
Visibility 10 km or more
no clouds below 1500 m and no cumulonimbus

TAF: HEMA 281105Z 2812/2918 02015G25KT CAVOK

Weather observations and forecasts of more than 4000 airports (METAR and TAF reports).

The available stations are represented by yellow and red dots on the map.

Hover mouse over dot to see the name of the station.

Then click to see weather observations and forecasts.

To change the map : click on the green buttons with a black cross to zoom in, on the green button with a dash to zoom out, or on the green arrows for adjacent maps.


METAR-TAF: